Time;durP1;ratioP1;P1;durP2;ratioP2;P2;SDS_P1;SDS_P2;PMS_P1;PMS_P2;Temp;Humidity;BMP_temperature;BMP_pressure;BME280_temperature;BME280_humidity;BME280_pressure;Samples;Min_cycle;Max_cycle;Signal;HPM_P1;HPM_P2
2024/03/01 00:02:11;;;;;;;21.20;17.37;;;;;;;6.21;100.00;100543.19;7766869;22;20210;-71
2024/03/01 00:05:32;;;;;;;22.37;17.23;;;;;;;6.37;100.00;100541.88;7767885;22;20281;-71
2024/03/01 00:08:53;;;;;;;21.43;16.27;;;;;;;6.35;100.00;100527.75;7772226;22;20676;-71
2024/03/01 00:12:15;;;;;;;19.17;16.97;;;;;;;6.17;100.00;100542.56;7769019;22;20226;-71
2024/03/01 00:15:37;;;;;;;17.00;15.20;;;;;;;5.93;100.00;100546.22;7769935;22;20597;-69
2024/03/01 00:18:58;;;;;;;20.23;17.33;;;;;;;6.07;100.00;100540.69;7771963;22;20289;-70
2024/03/01 00:22:19;;;;;;;21.17;17.00;;;;;;;6.13;100.00;100543.75;7768719;22;20218;-70
2024/03/01 00:25:40;;;;;;;21.67;17.43;;;;;;;6.10;100.00;100524.41;7766231;22;20540;-72
2024/03/01 00:29:03;;;;;;;17.77;15.30;;;;;;;6.11;100.00;100526.94;7773920;22;20221;-70
2024/03/01 00:32:23;;;;;;;17.73;15.13;;;;;;;6.10;100.00;100535.97;7766971;22;20221;-70
2024/03/01 00:35:44;;;;;;;23.53;17.20;;;;;;;5.89;100.00;100532.22;7768417;22;20531;-70
2024/03/01 00:39:07;;;;;;;20.77;17.27;;;;;;;5.92;100.00;100533.81;7773716;22;20264;-70
2024/03/01 00:42:28;;;;;;;19.00;16.50;;;;;;;6.05;100.00;100534.63;7769898;22;20559;-70
2024/03/01 00:45:50;;;;;;;18.77;15.00;;;;;;;6.05;100.00;100521.25;7770763;22;20439;-69
2024/03/01 00:49:13;;;;;;;18.43;15.80;;;;;;;5.87;100.00;100527.94;7774821;22;20211;-70
2024/03/01 00:52:34;;;;;;;21.37;17.00;;;;;;;5.94;100.00;100527.41;7771250;22;20206;-69
2024/03/01 00:55:54;;;;;;;22.47;16.20;;;;;;;6.01;100.00;100523.28;7769778;22;20214;-69
2024/03/01 00:59:15;;;;;;;25.40;18.27;;;;;;;5.77;100.00;100532.25;7776462;22;20214;-70
2024/03/01 01:02:38;;;;;;;20.90;18.53;;;;;;;5.58;100.00;100522.06;7768532;22;20294;-69
2024/03/01 01:06:00;;;;;;;20.00;16.97;;;;;;;5.69;100.00;100516.78;7767581;22;20572;-70
2024/03/01 01:09:21;;;;;;;19.63;17.37;;;;;;;5.68;100.00;100520.41;7773341;22;20215;-70
2024/03/01 01:12:42;;;;;;;19.50;16.00;;;;;;;5.64;100.00;100514.44;7772822;22;20218;-70
2024/03/01 01:16:03;;;;;;;21.27;18.77;;;;;;;5.59;100.00;100513.94;7769936;22;20565;-70
2024/03/01 01:19:25;;;;;;;22.60;17.40;;;;;;;5.65;100.00;100510.78;7773924;22;20214;-70
2024/03/01 01:22:46;;;;;;;20.60;16.27;;;;;;;5.71;100.00;100505.97;7769275;22;20624;-71
2024/03/01 01:26:07;;;;;;;25.47;18.00;;;;;;;5.68;100.00;100504.38;7772405;22;20206;-70
2024/03/01 01:29:28;;;;;;;25.37;18.13;;;;;;;5.55;100.00;100495.56;7778078;22;20215;-70
2024/03/01 01:32:49;;;;;;;21.33;17.17;;;;;;;5.50;100.00;100497.72;7752521;22;20994;-71
2024/03/01 01:36:12;;;;;;;20.53;17.60;;;;;;;5.51;100.00;100483.38;7772342;22;20214;-70
2024/03/01 01:39:33;;;;;;;19.80;17.40;;;;;;;5.50;100.00;100487.91;7775372;22;20517;-70
2024/03/01 01:42:55;;;;;;;19.67;17.67;;;;;;;5.48;100.00;100488.97;7772470;22;20206;-70
2024/03/01 01:46:17;;;;;;;20.50;18.37;;;;;;;5.43;100.00;100491.13;7772139;22;21707;-70
2024/03/01 01:49:38;;;;;;;22.70;17.70;;;;;;;5.34;100.00;100489.97;7774654;22;20210;-69
2024/03/01 01:53:02;;;;;;;23.57;18.83;;;;;;;5.04;100.00;100470.84;7772883;22;21101;-71
2024/03/01 01:56:23;;;;;;;19.07;16.83;;;;;;;5.14;100.00;100460.34;7770821;22;20551;-70
2024/03/01 01:59:47;;;;;;;20.37;17.37;;;;;;;5.15;100.00;100467.41;7778246;22;20210;-70
2024/03/01 02:03:12;;;;;;;19.70;17.30;;;;;;;5.08;100.00;100467.00;7737851;22;20250;-71
2024/03/01 02:06:33;;;;;;;20.57;17.50;;;;;;;5.30;100.00;100468.97;7768327;22;20206;-71
2024/03/01 02:09:56;;;;;;;23.37;20.10;;;;;;;5.11;100.00;100455.25;7771228;22;20245;-70
2024/03/01 02:13:20;;;;;;;23.47;19.87;;;;;;;5.01;100.00;100455.03;7772522;22;20452;-71
2024/03/01 02:16:42;;;;;;;20.90;18.57;;;;;;;5.06;100.00;100449.38;7747480;22;20214;-69
2024/03/01 02:20:03;;;;;;;23.87;19.53;;;;;;;4.96;100.00;100451.00;7773642;22;20206;-70
2024/03/01 02:23:26;;;;;;;22.37;17.43;;;;;;;4.94;100.00;100437.78;7775511;22;20214;-70
2024/03/01 02:26:47;;;;;;;21.50;18.57;;;;;;;4.94;100.00;100439.56;7771818;22;20218;-70
2024/03/01 02:30:09;;;;;;;25.30;17.63;;;;;;;4.84;100.00;100426.88;7772847;22;20553;-69
2024/03/01 02:33:30;;;;;;;27.50;19.97;;;;;;;4.85;100.00;100425.94;7772135;22;20474;-69
2024/03/01 02:36:51;;;;;;;23.47;17.80;;;;;;;4.82;100.00;100423.47;7768033;22;20210;-70
2024/03/01 02:40:14;;;;;;;19.77;17.30;;;;;;;4.67;100.00;100423.75;7768304;22;20210;-70
2024/03/01 02:43:35;;;;;;;24.53;17.87;;;;;;;4.85;100.00;100425.06;7774916;22;20223;-70
2024/03/01 02:46:56;;;;;;;22.57;18.73;;;;;;;4.75;100.00;100421.38;7768841;22;20486;-70
2024/03/01 02:50:17;;;;;;;19.03;17.07;;;;;;;4.87;100.00;100428.47;7763341;22;20694;-70
2024/03/01 02:53:38;;;;;;;21.43;18.90;;;;;;;4.60;100.00;100423.31;7776587;22;20240;-70
2024/03/01 02:57:00;;;;;;;19.73;17.67;;;;;;;4.63;100.00;100417.75;7773671;22;20210;-70
2024/03/01 03:00:22;;;;;;;23.03;20.53;;;;;;;4.63;100.00;100409.75;7750444;22;20202;-70
2024/03/01 03:03:42;;;;;;;24.27;17.20;;;;;;;4.53;100.00;100418.50;7775660;22;20301;-70
2024/03/01 03:07:04;;;;;;;28.27;20.97;;;;;;;4.76;100.00;100407.91;7733345;22;20214;-69
2024/03/01 03:10:24;;;;;;;25.27;19.13;;;;;;;4.49;100.00;100407.22;7733711;22;20818;-69
2024/03/01 03:13:47;;;;;;;26.63;18.40;;;;;;;4.31;100.00;100408.53;7776341;22;20287;-70
2024/03/01 03:17:08;;;;;;;19.30;16.87;;;;;;;4.53;100.00;100411.38;7770325;22;20203;-70
2024/03/01 03:20:35;;;;;;;21.87;17.63;;;;;;;4.56;100.00;100404.97;7768527;22;20218;-69
2024/03/01 03:23:55;;;;;;;23.83;17.90;;;;;;;4.47;100.00;100397.59;7776383;22;20643;-70
2024/03/01 03:27:17;;;;;;;23.67;19.27;;;;;;;4.31;100.00;100400.53;7774709;22;20214;-70
2024/03/01 03:30:39;;;;;;;27.93;19.70;;;;;;;4.40;100.00;100402.50;7772502;22;20206;-71
2024/03/01 03:34:00;;;;;;;22.90;18.83;;;;;;;4.42;100.00;100411.25;7776506;22;20557;-69
2024/03/01 03:37:21;;;;;;;17.77;15.87;;;;;;;4.43;100.00;100404.97;7772606;22;20210;-69
2024/03/01 03:40:42;;;;;;;25.43;19.10;;;;;;;4.38;100.00;100412.44;7769721;22;20218;-71
2024/03/01 03:44:04;;;;;;;22.63;18.30;;;;;;;4.37;100.00;100410.75;7776856;22;20214;-70
2024/03/01 03:47:26;;;;;;;20.83;18.47;;;;;;;4.38;100.00;100411.63;7768530;22;20214;-70
2024/03/01 03:50:47;;;;;;;22.90;17.57;;;;;;;4.28;100.00;100408.72;7731756;22;20290;-71
2024/03/01 03:54:13;;;;;;;24.23;19.87;;;;;;;4.28;100.00;100410.53;7776324;22;20215;-70
2024/03/01 03:57:35;;;;;;;19.77;17.77;;;;;;;4.32;100.00;100420.88;7772957;22;20207;-70
2024/03/01 04:00:56;;;;;;;24.03;21.57;;;;;;;4.43;100.00;100413.00;7772055;22;20297;-69
2024/03/01 04:04:19;;;;;;;23.80;17.43;;;;;;;4.34;100.00;100416.28;7777477;22;20214;-69
2024/03/01 04:07:40;;;;;;;23.53;17.57;;;;;;;4.15;100.00;100415.03;7776630;22;20456;-70
2024/03/01 04:11:05;;;;;;;23.07;20.60;;;;;;;4.25;100.00;100414.28;7772570;22;20210;-70
2024/03/01 04:14:26;;;;;;;24.63;20.30;;;;;;;4.35;100.00;100415.34;7743232;22;20206;-70
2024/03/01 04:17:47;;;;;;;20.30;18.13;;;;;;;4.24;100.00;100412.56;7734521;22;20223;-69
2024/03/01 04:21:09;;;;;;;23.00;18.60;;;;;;;4.14;100.00;100405.31;7769061;22;20210;-69
2024/03/01 04:24:30;;;;;;;24.27;20.50;;;;;;;4.25;100.00;100408.97;7773000;22;20218;-69
2024/03/01 04:27:51;;;;;;;22.97;19.23;;;;;;;4.30;100.00;100405.97;7762977;22;20214;-70
2024/03/01 04:31:12;;;;;;;22.53;19.23;;;;;;;4.17;100.00;100394.44;7770106;22;20484;-69
2024/03/01 04:34:33;;;;;;;26.20;17.97;;;;;;;4.20;100.00;100396.88;7774780;22;20210;-70
2024/03/01 04:37:56;;;;;;;24.90;19.73;;;;;;;4.17;100.00;100392.66;7770982;22;20526;-70
2024/03/01 04:41:18;;;;;;;24.17;19.73;;;;;;;4.11;100.00;100389.56;7768215;22;20214;-70
2024/03/01 04:44:40;;;;;;;28.70;21.73;;;;;;;4.27;100.00;100392.84;7774731;22;20446;-69
2024/03/01 04:48:01;;;;;;;23.43;19.87;;;;;;;4.14;100.00;100398.19;7763560;22;20210;-69
2024/03/01 04:51:24;;;;;;;21.10;18.03;;;;;;;4.19;100.00;100400.53;7768380;22;20666;-70
2024/03/01 04:54:47;;;;;;;21.33;19.00;;;;;;;4.20;100.00;100399.56;7774026;22;20210;-69
2024/03/01 04:58:08;;;;;;;25.57;17.67;;;;;;;4.28;100.00;100399.88;7768570;22;20214;-69
2024/03/01 05:01:29;;;;;;;24.03;19.03;;;;;;;3.99;100.00;100401.91;7764279;22;20297;-68
2024/03/01 05:04:50;;;;;;;23.57;18.57;;;;;;;3.82;100.00;100397.75;7769803;22;20568;-69
2024/03/01 05:08:11;;;;;;;23.27;18.83;;;;;;;4.07;100.00;100392.41;7771714;22;20214;-70
2024/03/01 05:11:35;;;;;;;23.47;18.77;;;;;;;3.98;100.00;100394.88;7774180;22;20214;-70
2024/03/01 05:14:57;;;;;;;23.87;19.43;;;;;;;3.95;100.00;100395.09;7779157;22;20222;-70
2024/03/01 05:18:18;;;;;;;21.93;18.93;;;;;;;4.14;100.00;100400.84;7771892;22;20214;-70
2024/03/01 05:21:40;;;;;;;24.73;19.00;;;;;;;3.91;100.00;100401.59;7771583;22;20206;-70
2024/03/01 05:25:01;;;;;;;24.20;20.50;;;;;;;3.83;100.00;100404.78;7775445;22;20671;-68
2024/03/01 05:28:23;;;;;;;31.23;20.17;;;;;;;3.97;100.00;100401.16;7774807;22;20210;-69
2024/03/01 05:31:47;;;;;;;24.20;17.13;;;;;;;3.96;100.00;100404.81;7767092;22;20297;-71
2024/03/01 05:35:09;;;;;;;22.23;17.93;;;;;;;3.92;100.00;100408.66;7769589;22;20207;-70
2024/03/01 05:38:30;;;;;;;23.20;20.87;;;;;;;3.83;100.00;100406.59;7772770;22;20449;-71
2024/03/01 05:41:51;;;;;;;26.67;21.97;;;;;;;3.87;100.00;100403.63;7755940;22;20475;-70
2024/03/01 05:45:14;;;;;;;25.57;21.50;;;;;;;3.92;100.00;100400.66;7769842;22;20808;-69
2024/03/01 05:48:34;;;;;;;28.00;22.37;;;;;;;3.93;100.00;100389.88;7731320;22;20230;-70
2024/03/01 05:51:55;;;;;;;26.30;22.17;;;;;;;4.12;100.00;100391.25;7730740;22;20294;-71
2024/03/01 05:55:17;;;;;;;24.13;19.27;;;;;;;3.92;100.00;100403.31;7731219;22;20299;-70
2024/03/01 05:58:38;;;;;;;26.23;19.60;;;;;;;3.88;100.00;100399.16;7735942;22;20400;-70
2024/03/01 06:02:00;;;;;;;30.17;20.50;;;;;;;3.84;100.00;100398.50;7768068;22;20293;-67
2024/03/01 06:05:21;;;;;;;26.23;20.83;;;;;;;3.73;100.00;100378.88;7732396;22;20211;-70
2024/03/01 06:08:42;;;;;;;23.33;19.77;;;;;;;3.62;100.00;100387.59;7735506;22;20215;-70
2024/03/01 06:12:04;;;;;;;24.17;19.67;;;;;;;3.77;100.00;100394.56;7727938;22;20211;-72
2024/03/01 06:15:24;;;;;;;21.37;18.77;;;;;;;4.77;100.00;100384.72;7728968;22;20845;-71
2024/03/01 06:18:47;;;;;;;26.60;21.63;;;;;;;4.09;100.00;100392.31;7771776;22;20616;-69
2024/03/01 06:22:08;;;;;;;19.73;17.63;;;;;;;3.97;100.00;100388.69;7766661;22;20210;-67
2024/03/01 06:25:29;;;;;;;24.93;18.83;;;;;;;4.02;100.00;100394.56;7767375;22;20619;-67
2024/03/01 06:28:50;;;;;;;25.80;19.83;;;;;;;3.92;100.00;100389.97;7772298;22;20895;-67
2024/03/01 06:32:11;;;;;;;22.60;17.47;;;;;;;3.98;100.00;100377.06;7772334;22;20560;-67
2024/03/01 06:35:33;;;;;;;26.87;20.23;;;;;;;4.01;100.00;100389.31;7766529;22;20210;-68
2024/03/01 06:38:54;;;;;;;24.40;19.67;;;;;;;4.06;100.00;100381.88;7772628;22;20214;-68
2024/03/01 06:42:15;;;;;;;20.53;18.40;;;;;;;3.98;100.00;100382.38;7766488;22;20293;-68
2024/03/01 06:45:36;;;;;;;20.93;18.50;;;;;;;4.32;100.00;100391.53;7769123;22;20225;-68
2024/03/01 06:48:57;;;;;;;24.03;20.50;;;;;;;4.09;100.00;100386.13;7779217;22;20285;-68
2024/03/01 06:52:19;;;;;;;24.63;20.23;;;;;;;3.96;100.00;100391.47;7766118;22;20239;-68
2024/03/01 06:55:40;;;;;;;24.47;20.87;;;;;;;4.03;100.00;100403.41;7768433;22;20203;-69
2024/03/01 06:59:01;;;;;;;29.40;20.77;;;;;;;4.04;100.00;100405.13;7773140;22;20545;-68
2024/03/01 07:02:22;;;;;;;25.53;19.67;;;;;;;4.09;100.00;100407.47;7767140;22;20552;-67
2024/03/01 07:05:43;;;;;;;21.53;18.37;;;;;;;4.27;100.00;100412.38;7765806;22;20845;-67
2024/03/01 07:09:06;;;;;;;25.70;20.47;;;;;;;4.13;100.00;100411.63;7775145;22;20285;-65
2024/03/01 07:12:26;;;;;;;24.37;19.57;;;;;;;4.23;100.00;100410.03;7764691;22;20206;-68
2024/03/01 07:15:47;;;;;;;25.53;18.40;;;;;;;4.16;100.00;100422.94;7769090;22;20215;-67
2024/03/01 07:19:09;;;;;;;22.00;19.63;;;;;;;4.37;100.00;100428.56;7780255;22;20214;-66
2024/03/01 07:22:30;;;;;;;26.70;20.83;;;;;;;4.28;100.00;100427.41;7772671;22;20289;-67
2024/03/01 07:25:52;;;;;;;25.40;19.60;;;;;;;4.38;100.00;100419.63;7770658;22;20206;-67
2024/03/01 07:29:13;;;;;;;22.80;19.83;;;;;;;4.57;100.00;100430.66;7778038;22;20214;-68
2024/03/01 07:32:35;;;;;;;22.17;18.57;;;;;;;4.85;100.00;100425.94;7775085;22;20214;-66
2024/03/01 07:35:56;;;;;;;24.70;19.07;;;;;;;4.71;100.00;100420.72;7731586;22;20704;-68
2024/03/01 07:39:17;;;;;;;22.37;19.97;;;;;;;4.68;100.00;100428.97;7743384;22;20211;-68
2024/03/01 07:42:40;;;;;;;21.83;18.93;;;;;;;4.62;100.00;100423.19;7736328;22;20215;-67
2024/03/01 07:46:03;;;;;;;25.03;19.07;;;;;;;4.79;100.00;100441.53;7774421;22;20608;-66
2024/03/01 07:49:23;;;;;;;24.67;18.67;;;;;;;5.05;100.00;100423.63;7776334;22;20301;-67
2024/03/01 07:52:44;;;;;;;21.83;17.93;;;;;;;4.99;100.00;100422.25;7773756;22;20218;-66
2024/03/01 07:56:06;;;;;;;26.97;20.33;;;;;;;5.21;100.00;100426.88;7772155;22;20215;-67
2024/03/01 07:59:28;;;;;;;20.67;18.17;;;;;;;5.48;100.00;100424.81;7780572;22;20210;-67
2024/03/01 08:02:57;;;;;;;22.93;19.73;;;;;;;5.40;100.00;100417.34;7771410;22;20219;-70
2024/03/01 08:06:18;;;;;;;23.70;18.67;;;;;;;5.51;100.00;100427.25;7772445;22;20214;-68
2024/03/01 08:09:40;;;;;;;29.27;20.83;;;;;;;5.41;100.00;100423.56;7775739;22;20210;-68
2024/03/01 08:13:02;;;;;;;24.40;20.00;;;;;;;5.24;100.00;100421.28;7771902;22;20444;-66
2024/03/01 08:16:26;;;;;;;25.10;21.20;;;;;;;5.43;100.00;100425.16;7770833;22;20938;-66
2024/03/01 08:19:50;;;;;;;28.37;20.17;;;;;;;5.58;100.00;100426.69;7779820;22;20210;-65
2024/03/01 08:23:12;;;;;;;20.40;16.47;;;;;;;5.60;100.00;100421.22;7770146;22;20214;-65
2024/03/01 08:26:35;;;;;;;25.90;19.37;;;;;;;5.75;100.00;100424.56;7768182;22;20245;-66
2024/03/01 08:29:57;;;;;;;23.13;19.80;;;;;;;5.59;100.00;100412.34;7780587;22;20207;-67
2024/03/01 08:33:21;;;;;;;21.23;17.40;;;;;;;5.72;100.00;100419.41;7769822;22;20252;-68
2024/03/01 08:36:42;;;;;;;20.00;16.47;;;;;;;5.82;100.00;100415.94;7770802;22;20233;-67
2024/03/01 08:40:10;;;;;;;25.83;21.70;;;;;;;6.26;100.00;100413.38;7775949;22;20206;-68
2024/03/01 08:43:30;;;;;;;22.67;18.13;;;;;;;6.15;100.00;100408.00;7777081;22;20465;-69
2024/03/01 08:46:52;;;;;;;20.07;16.33;;;;;;;6.23;100.00;100413.63;7768647;22;20234;-67
2024/03/01 08:50:42;;;;;;;22.43;17.57;;;;;;;6.94;100.00;100412.38;7768334;22;20210;-68
2024/03/01 08:54:06;;;;;;;19.60;16.27;;;;;;;6.75;100.00;100410.34;7771034;22;20206;-67
2024/03/01 08:57:28;;;;;;;23.90;17.83;;;;;;;6.69;100.00;100410.84;7766607;22;20211;-67
2024/03/01 09:00:50;;;;;;;22.70;18.77;;;;;;;6.96;100.00;100413.09;7756886;22;20215;-66
2024/03/01 09:04:14;;;;;;;23.70;18.97;;;;;;;7.02;100.00;100408.09;7773917;22;20214;-67
2024/03/01 09:07:37;;;;;;;22.63;17.67;;;;;;;6.90;100.00;100401.06;7763214;22;20207;-67
2024/03/01 09:10:59;;;;;;;22.20;17.57;;;;;;;7.24;100.00;100407.16;7771854;22;20214;-66
2024/03/01 09:14:29;;;;;;;24.77;17.27;;;;;;;7.59;100.00;100396.22;7777324;22;20207;-68
2024/03/01 09:17:50;;;;;;;21.17;17.93;;;;;;;7.76;100.00;100401.00;7758072;22;20217;-68
2024/03/01 09:21:42;;;;;;;19.70;14.87;;;;;;;8.08;100.00;100394.59;7771986;22;20210;-66
2024/03/01 09:25:10;;;;;;;22.07;18.73;;;;;;;8.14;100.00;100386.97;7766457;22;20448;-67
2024/03/01 09:28:31;;;;;;;25.10;19.20;;;;;;;8.54;100.00;100385.22;7772440;22;20764;-69
2024/03/01 09:31:52;;;;;;;26.77;16.13;;;;;;;8.81;100.00;100388.16;7759633;22;20241;-68
2024/03/01 09:35:13;;;;;;;22.30;17.17;;;;;;;8.71;100.00;100381.91;7766453;22;20215;-68
2024/03/01 09:38:34;;;;;;;22.03;18.40;;;;;;;9.03;100.00;100376.34;7773484;22;20244;-68
2024/03/01 09:42:12;;;;;;;19.93;15.83;;;;;;;9.28;100.00;100359.66;7767049;22;20210;-67
2024/03/01 09:45:51;;;;;;;27.63;20.17;;;;;;;8.89;100.00;100365.97;7759708;22;20230;-68
2024/03/01 09:49:27;;;;;;;21.37;16.33;;;;;;;9.07;100.00;100367.84;7775085;22;20210;-68
2024/03/01 09:52:59;;;;;;;23.83;17.77;;;;;;;10.23;100.00;100364.97;7766730;22;20284;-69
2024/03/01 09:56:29;;;;;;;20.97;17.03;;;;;;;10.41;100.00;100359.63;7760154;22;20206;-67
2024/03/01 10:00:00;;;;;;;28.97;18.43;;;;;;;11.20;100.00;100358.91;7771751;22;20560;-67
2024/03/01 10:03:29;;;;;;;19.07;15.13;;;;;;;12.79;100.00;100359.44;7767133;22;20214;-67
2024/03/01 10:07:06;;;;;;;17.13;14.87;;;;;;;15.02;100.00;100355.13;7767997;22;20309;-68
2024/03/01 10:10:46;;;;;;;20.67;17.63;;;;;;;18.71;100.00;100342.53;7767909;22;20206;-67
2024/03/01 10:14:18;;;;;;;19.03;14.77;;;;;;;19.19;89.97;100342.56;7776992;22;20210;-67
2024/03/01 10:17:50;;;;;;;17.95;13.43;;;;;;;19.32;77.17;100346.19;7769485;22;20214;-67
2024/03/01 10:21:26;;;;;;;17.13;14.25;;;;;;;18.59;74.63;100352.34;7768320;22;20206;-69
2024/03/01 10:25:14;;;;;;;21.67;14.35;;;;;;;13.96;93.40;100373.72;7777401;22;20279;-66
2024/03/01 10:28:51;;;;;;;24.67;15.45;;;;;;;15.00;100.00;100362.63;7779530;22;20217;-68
2024/03/01 10:32:22;;;;;;;17.08;14.13;;;;;;;16.85;89.33;100353.94;7764229;22;20206;-68
2024/03/01 10:35:53;;;;;;;16.98;14.02;;;;;;;17.90;87.32;100340.47;7767515;22;20292;-68
2024/03/01 10:39:17;;;;;;;18.40;14.27;;;;;;;19.46;72.00;100350.66;7777569;22;20218;-67
2024/03/01 10:42:43;;;;;;;18.30;13.77;;;;;;;20.18;68.39;100353.50;7763347;22;20556;-68
2024/03/01 10:46:10;;;;;;;16.92;12.75;;;;;;;19.55;69.83;100363.09;7763753;22;20210;-68
2024/03/01 10:49:37;;;;;;;19.13;14.18;;;;;;;14.97;83.27;100367.56;7775056;22;20283;-66
2024/03/01 10:53:04;;;;;;;16.10;13.45;;;;;;;16.05;87.33;100364.63;7767731;22;20207;-67
2024/03/01 10:56:25;;;;;;;16.83;14.27;;;;;;;15.75;87.16;100365.59;7768541;22;20699;-67
2024/03/01 10:59:51;;;;;;;17.58;13.13;;;;;;;16.00;89.06;100365.19;7779563;22;20215;-70
2024/03/01 11:03:22;;;;;;;15.85;13.52;;;;;;;16.45;87.98;100375.13;7768905;22;20210;-70
2024/03/01 11:06:52;;;;;;;21.38;13.85;;;;;;;14.06;94.22;100377.94;7772368;22;20464;-70
2024/03/01 11:10:20;;;;;;;16.47;13.27;;;;;;;12.48;100.00;100385.31;7766886;22;20221;-69
2024/03/01 11:13:43;;;;;;;15.80;12.73;;;;;;;12.39;100.00;100378.16;7778674;22;20218;-69
2024/03/01 11:17:07;;;;;;;18.90;14.87;;;;;;;12.79;100.00;100377.50;7733044;22;20207;-68
2024/03/01 11:20:32;;;;;;;20.83;14.43;;;;;;;13.20;100.00;100384.81;7733699;22;20211;-67
2024/03/01 11:23:57;;;;;;;19.90;14.40;;;;;;;13.98;100.00;100382.50;7775989;22;20210;-68
2024/03/01 11:27:27;;;;;;;18.57;14.57;;;;;;;14.66;100.00;100370.25;7769518;22;20286;-68
2024/03/01 11:30:52;;;;;;;17.97;13.57;;;;;;;14.19;100.00;100380.13;7728806;22;20698;-68
2024/03/01 11:34:24;;;;;;;15.57;13.03;;;;;;;12.74;100.00;100388.00;7736108;22;20215;-69
2024/03/01 11:37:57;;;;;;;16.80;13.07;;;;;;;12.30;100.00;100384.53;7734684;22;20509;-69
2024/03/01 11:41:25;;;;;;;16.40;13.07;;;;;;;12.07;100.00;100385.19;7736508;22;20529;-71
2024/03/01 11:45:02;;;;;;;18.00;13.47;;;;;;;12.00;100.00;100379.56;7739620;22;20214;-69
2024/03/01 11:48:40;;;;;;;17.53;13.40;;;;;;;11.91;100.00;100389.47;7732857;22;20326;-69
2024/03/01 11:52:18;;;;;;;22.00;13.23;;;;;;;11.86;100.00;100396.34;7732876;22;20211;-69
2024/03/01 11:55:52;;;;;;;15.33;11.50;;;;;;;11.70;100.00;100394.34;7771534;22;20596;-69
2024/03/01 11:59:30;;;;;;;14.67;11.73;;;;;;;11.72;100.00;100394.22;7778548;22;20210;-69
2024/03/01 12:03:22;;;;;;;14.73;12.07;;;;;;;11.98;100.00;100395.09;7754555;22;20289;-69
2024/03/01 12:07:01;;;;;;;13.83;10.27;;;;;;;12.19;100.00;100390.19;7742519;22;20230;-69
2024/03/01 12:10:34;;;;;;;12.93;9.07;;;;;;;12.82;100.00;100399.69;7767422;22;20218;-69
2024/03/01 12:13:57;;;;;;;14.43;10.50;;;;;;;13.43;100.00;100385.84;7775880;22;20214;-68
2024/03/01 12:17:22;;;;;;;11.70;9.40;;;;;;;12.43;100.00;100398.44;7758050;22;20234;-69
2024/03/01 12:20:56;;;;;;;13.83;9.27;;;;;;;13.03;100.00;100396.56;7765813;22;20214;-69
2024/03/01 12:24:19;;;;;;;12.83;9.53;;;;;;;13.61;100.00;100396.56;7738007;22;20558;-69
2024/03/01 12:27:57;;;;;;;12.23;8.80;;;;;;;14.16;100.00;100389.44;7733733;22;20220;-68
2024/03/01 12:31:35;;;;;;;13.53;10.57;;;;;;;14.41;100.00;100382.19;7728793;22;20215;-70
2024/03/01 12:35:13;;;;;;;11.37;9.60;;;;;;;14.53;100.00;100382.63;7726780;22;20211;-69
2024/03/01 12:38:40;;;;;;;15.03;10.03;;;;;;;13.18;100.00;100397.66;7740612;22;20207;-68
2024/03/01 12:42:09;;;;;;;10.07;8.17;;;;;;;12.78;100.00;100405.59;7777593;22;20206;-69
2024/03/01 12:45:40;;;;;;;11.30;9.20;;;;;;;12.09;100.00;100404.81;7732801;22;20207;-68
2024/03/01 12:49:17;;;;;;;10.10;8.57;;;;;;;12.35;100.00;100395.69;7740528;22;20549;-68
2024/03/01 12:52:56;;;;;;;9.07;8.07;;;;;;;12.48;100.00;100396.13;7773051;22;20237;-68
2024/03/01 12:56:31;;;;;;;8.70;7.80;;;;;;;12.26;100.00;100399.38;7740966;22;20211;-68
2024/03/01 13:00:00;;;;;;;10.33;7.77;;;;;;;12.15;100.00;100405.03;7745955;22;20214;-69
2024/03/01 13:03:38;;;;;;;10.73;8.90;;;;;;;12.14;100.00;100405.19;7770898;22;20563;-67
2024/03/01 13:07:00;;;;;;;10.37;9.27;;;;;;;12.32;100.00;100404.13;7778813;22;20297;-67
2024/03/01 13:10:25;;;;;;;8.20;7.37;;;;;;;11.84;100.00;100433.47;7773959;22;20211;-68
2024/03/01 13:13:54;;;;;;;10.43;8.80;;;;;;;11.81;100.00;100420.25;7743652;22;20211;-68
2024/03/01 13:17:22;;;;;;;12.03;9.03;;;;;;;11.78;100.00;100423.28;7766217;22;20285;-67
2024/03/01 13:21:04;;;;;;;10.97;9.57;;;;;;;11.83;100.00;100420.97;7776422;22;20218;-68
2024/03/01 13:24:33;;;;;;;10.10;8.27;;;;;;;11.84;100.00;100412.72;7778825;22;20440;-68
2024/03/01 13:28:01;;;;;;;11.70;9.40;;;;;;;11.80;100.00;100422.16;7773568;22;20285;-69
2024/03/01 13:31:26;;;;;;;10.73;9.50;;;;;;;11.69;100.00;100432.31;7774885;22;20213;-69
2024/03/01 13:34:53;;;;;;;10.80;8.80;;;;;;;11.73;100.00;100420.19;7780872;22;20218;-68
2024/03/01 13:38:19;;;;;;;11.03;9.10;;;;;;;11.69;100.00;100410.72;7744272;22;20219;-68
2024/03/01 13:41:51;;;;;;;11.17;8.67;;;;;;;11.74;100.00;100419.22;7739488;22;20294;-69
2024/03/01 13:45:17;;;;;;;10.47;8.77;;;;;;;11.71;100.00;100422.19;7773381;22;20674;-69
2024/03/01 13:48:44;;;;;;;11.97;8.80;;;;;;;11.66;100.00;100419.09;7773930;22;20210;-69
2024/03/01 13:52:07;;;;;;;12.50;8.93;;;;;;;11.63;100.00;100419.41;7773252;22;20203;-69
2024/03/01 13:55:28;;;;;;;9.40;8.40;;;;;;;11.59;100.00;100423.41;7774848;22;20206;-69
2024/03/01 13:58:49;;;;;;;9.80;8.80;;;;;;;11.62;100.00;100410.44;7778957;22;20218;-69
2024/03/01 14:02:11;;;;;;;10.97;8.87;;;;;;;11.66;100.00;100409.16;7768692;22;20589;-69
2024/03/01 14:05:34;;;;;;;13.93;10.10;;;;;;;11.70;100.00;100410.53;7774646;22;20495;-69
2024/03/01 14:08:54;;;;;;;13.03;9.67;;;;;;;11.53;100.00;100408.69;7779103;22;20285;-68
2024/03/01 14:12:16;;;;;;;10.37;9.27;;;;;;;11.49;100.00;100417.25;7777233;22;20215;-68
2024/03/01 14:15:37;;;;;;;12.23;9.90;;;;;;;11.46;100.00;100417.53;7751752;22;20277;-68
2024/03/01 14:18:57;;;;;;;12.10;10.57;;;;;;;11.45;100.00;100414.00;7779113;22;20210;-69
2024/03/01 14:22:20;;;;;;;13.27;9.93;;;;;;;11.51;100.00;100415.25;7777215;22;20218;-69
2024/03/01 14:25:42;;;;;;;11.67;9.60;;;;;;;11.55;100.00;100416.63;7776522;22;20447;-68
2024/03/01 14:29:04;;;;;;;8.83;7.93;;;;;;;11.40;100.00;100416.31;7783082;22;20285;-68
2024/03/01 14:32:25;;;;;;;8.60;7.73;;;;;;;11.53;100.00;100419.47;7768586;22;20540;-69
2024/03/01 14:35:46;;;;;;;9.13;8.20;;;;;;;11.74;100.00;100416.50;7773460;22;20616;-68
2024/03/01 14:39:09;;;;;;;11.53;8.77;;;;;;;12.13;100.00;100414.28;7780497;22;20210;-68
2024/03/01 14:42:30;;;;;;;10.30;9.20;;;;;;;12.83;100.00;100403.22;7776956;22;20304;-68
2024/03/01 14:45:52;;;;;;;10.97;8.47;;;;;;;12.56;100.00;100401.56;7770301;22;20317;-68
2024/03/01 14:49:15;;;;;;;11.07;8.10;;;;;;;12.69;100.00;100393.88;7778688;22;20226;-69
2024/03/01 14:52:35;;;;;;;11.37;8.63;;;;;;;12.44;100.00;100405.56;7773307;22;20297;-69
2024/03/01 14:55:57;;;;;;;13.90;9.60;;;;;;;12.54;100.00;100405.44;7728063;22;20223;-69
2024/03/01 14:59:19;;;;;;;12.77;8.93;;;;;;;12.51;100.00;100403.06;7743797;22;20390;-68
2024/03/01 15:02:40;;;;;;;11.60;8.10;;;;;;;12.63;100.00;100405.34;7738791;22;20211;-69
2024/03/01 15:06:03;;;;;;;8.07;7.10;;;;;;;14.47;100.00;100386.91;7741598;22;20211;-68
2024/03/01 15:09:24;;;;;;;7.77;6.97;;;;;;;14.82;100.00;100385.59;7743260;22;20215;-68
2024/03/01 15:12:53;;;;;;;10.17;8.07;;;;;;;13.75;100.00;100393.19;7777189;22;20301;-68
2024/03/01 15:16:26;;;;;;;9.73;8.13;;;;;;;13.20;100.00;100403.75;7778548;22;20247;-68
2024/03/01 15:19:51;;;;;;;11.50;8.37;;;;;;;12.59;100.00;100400.41;7765487;22;20430;-68
2024/03/01 15:23:12;;;;;;;9.97;8.57;;;;;;;12.59;100.00;100398.56;7778937;22;20206;-68
2024/03/01 15:26:44;;;;;;;8.63;7.20;;;;;;;12.50;100.00;100396.81;7771719;22;20206;-68
2024/03/01 15:30:11;;;;;;;9.30;6.63;;;;;;;12.56;100.00;100404.28;7777516;22;20540;-67